createdAt,value
2023-01-03T00:00:44.139Z,1.00
2023-01-03T00:03:14.425Z,1.20
2023-01-03T00:05:42.706Z,1.23
2023-01-03T00:08:10.073Z,1.00
2023-01-03T00:10:38.052Z,1.20
2023-01-03T00:13:06.116Z,1.20
2023-01-03T00:15:39.806Z,0.93
2023-01-03T00:18:07.032Z,1.00
2023-01-03T00:20:35.085Z,4.60
2023-01-03T00:23:02.372Z,1.43
2023-01-03T00:25:30.657Z,1.70
2023-01-03T00:27:57.587Z,1.23
2023-01-03T00:30:24.446Z,1.73
2023-01-03T00:32:51.313Z,1.17
2023-01-03T00:35:18.158Z,1.30
2023-01-03T00:37:44.974Z,1.30
2023-01-03T00:40:12.848Z,1.83
2023-01-03T00:42:59.671Z,1.40
2023-01-03T00:45:28.170Z,1.30
2023-01-03T00:47:57.891Z,1.53
2023-01-03T00:50:24.715Z,2.17
2023-01-03T00:52:51.536Z,1.30
2023-01-03T00:55:18.363Z,2.07
2023-01-03T00:57:45.611Z,1.97
2023-01-03T01:00:13.680Z,2.40
2023-01-03T01:02:40.874Z,2.60
2023-01-03T01:05:09.267Z,1.60
2023-01-03T01:07:39.332Z,1.40
2023-01-03T01:10:06.558Z,1.70
2023-01-03T01:12:33.669Z,1.80
2023-01-03T01:15:00.481Z,1.77
2023-01-03T01:17:28.769Z,1.90
2023-01-03T01:19:56.179Z,1.70
2023-01-03T01:22:22.962Z,1.83
2023-01-03T01:24:50.011Z,2.00
2023-01-03T01:27:16.824Z,2.20
2023-01-03T01:29:44.539Z,1.80
2023-01-03T01:32:11.358Z,1.93
2023-01-03T01:34:38.722Z,2.73
2023-01-03T01:37:06.992Z,2.03
2023-01-03T01:39:33.933Z,2.00
2023-01-03T01:42:28.717Z,3.47
2023-01-03T01:45:02.204Z,2.30
2023-01-03T01:48:08.241Z,2.40
2023-01-03T01:50:38.498Z,3.83
2023-01-03T01:53:22.269Z,7.93
2023-01-03T01:56:17.749Z,7.13
2023-01-03T01:58:47.863Z,4.83
2023-01-03T02:01:18.942Z,3.47
2023-01-03T02:03:55.479Z,3.87
2023-01-03T02:06:24.126Z,3.90
2023-01-03T02:08:51.651Z,4.23
2023-01-03T02:11:39.992Z,4.03
2023-01-03T02:14:24.993Z,3.63
2023-01-03T02:17:30.861Z,5.53
2023-01-03T02:20:19.208Z,3.50
2023-01-03T02:23:04.890Z,5.00
2023-01-03T02:25:49.193Z,6.67
2023-01-03T02:28:21.719Z,5.63
2023-01-03T02:31:00.884Z,5.60
2023-01-03T02:33:50.772Z,4.27
2023-01-03T02:36:26.490Z,3.93
2023-01-03T02:38:59.486Z,3.53
2023-01-03T02:41:38.328Z,3.40
2023-01-03T02:44:33.777Z,3.63
2023-01-03T02:47:08.505Z,5.20
2023-01-03T02:49:42.262Z,3.73
2023-01-03T02:52:15.996Z,3.87
2023-01-03T02:54:58.998Z,5.03
2023-01-03T02:57:47.498Z,3.93
2023-01-03T03:00:19.508Z,3.83
2023-01-03T03:02:53.119Z,4.53
2023-01-03T03:05:36.980Z,4.77
2023-01-03T03:08:07.568Z,4.27
2023-01-03T03:10:53.751Z,4.07
2023-01-03T03:13:40.368Z,4.33
2023-01-03T03:16:16.104Z,3.93
2023-01-03T03:19:02.122Z,3.77
2023-01-03T03:21:53.998Z,3.93
2023-01-03T03:24:46.286Z,3.57
2023-01-03T03:27:36.976Z,4.07
2023-01-03T03:30:08.160Z,5.00
2023-01-03T03:32:37.416Z,4.13
2023-01-03T03:35:16.913Z,3.73
2023-01-03T03:37:47.148Z,4.30
2023-01-03T03:40:41.212Z,3.77
2023-01-03T03:43:38.637Z,3.23
2023-01-03T03:46:12.709Z,4.07
2023-01-03T03:49:36.249Z,3.90
2023-01-03T03:52:07.363Z,5.70
2023-01-03T03:54:44.081Z,5.43
2023-01-03T03:57:14.961Z,3.27
2023-01-03T03:59:47.562Z,4.00
2023-01-03T04:02:17.160Z,4.97
2023-01-03T04:04:48.497Z,5.37
2023-01-03T04:07:15.729Z,3.47
2023-01-03T04:09:43.155Z,3.43
2023-01-03T04:12:10.008Z,3.83
2023-01-03T04:14:36.869Z,3.80
2023-01-03T04:17:04.242Z,3.60
2023-01-03T04:19:31.093Z,3.77
2023-01-03T04:21:58.069Z,3.97
2023-01-03T04:24:25.016Z,4.03
2023-01-03T04:26:53.009Z,4.07
2023-01-03T04:29:26.523Z,5.37
2023-01-03T04:31:53.464Z,5.27
2023-01-03T04:34:20.515Z,4.03
2023-01-03T04:36:47.487Z,3.80
2023-01-03T04:39:15.484Z,4.77
2023-01-03T04:41:45.554Z,3.37
2023-01-03T04:44:12.516Z,4.50
2023-01-03T04:46:52.347Z,6.20
2023-01-03T04:49:20.561Z,6.90
2023-01-03T04:51:47.475Z,3.60
2023-01-03T04:54:17.964Z,3.88
2023-01-03T04:56:46.365Z,4.50
2023-01-03T04:59:13.183Z,3.80
2023-01-03T05:01:52.492Z,5.37
2023-01-03T05:04:20.081Z,5.27
2023-01-03T05:06:47.261Z,27.27
2023-01-03T05:09:14.184Z,22.77
2023-01-03T05:11:42.071Z,17.20
2023-01-03T05:14:14.307Z,16.33
2023-01-03T05:16:41.806Z,9.93
2023-01-03T05:19:15.915Z,12.27
2023-01-03T05:22:07.700Z,9.03
2023-01-03T05:24:57.424Z,12.83
2023-01-03T05:27:24.458Z,12.33
2023-01-03T05:29:54.419Z,11.07
2023-01-03T05:32:21.354Z,9.03
2023-01-03T05:34:54.549Z,9.43
2023-01-03T05:37:23.196Z,8.27
2023-01-03T05:39:50.075Z,9.80
2023-01-03T05:42:16.891Z,8.63
2023-01-03T05:44:44.943Z,10.50
2023-01-03T05:47:11.800Z,7.83
2023-01-03T05:49:38.604Z,8.47
2023-01-03T05:52:05.963Z,7.80
2023-01-03T05:54:32.783Z,6.47
2023-01-03T05:57:01.090Z,7.17
2023-01-03T05:59:28.042Z,6.57
2023-01-03T06:01:56.587Z,5.87
2023-01-03T06:04:23.707Z,5.63
2023-01-03T06:06:50.834Z,7.57
2023-01-03T06:09:17.924Z,8.63
2023-01-03T06:11:44.883Z,7.30
2023-01-03T06:14:11.809Z,6.83
2023-01-03T06:16:57.293Z,8.77
2023-01-03T06:19:24.683Z,7.33
2023-01-03T06:21:52.101Z,7.33
2023-01-03T06:24:18.958Z,7.03
2023-01-03T06:26:47.019Z,6.70
2023-01-03T06:29:14.049Z,8.07
2023-01-03T06:31:41.973Z,8.10
2023-01-03T06:34:08.903Z,6.60
2023-01-03T06:36:37.735Z,8.07
2023-01-03T06:39:10.918Z,9.73
2023-01-03T06:41:39.272Z,8.10
2023-01-03T06:44:06.799Z,6.83
2023-01-03T06:46:52.347Z,7.37
2023-01-03T06:49:38.106Z,6.10
2023-01-03T06:52:30.249Z,6.93
2023-01-03T06:55:00.830Z,6.83
2023-01-03T06:57:27.845Z,8.80
2023-01-03T06:59:56.821Z,10.63
2023-01-03T07:02:23.849Z,7.67
2023-01-03T07:04:50.898Z,7.63
2023-01-03T07:07:17.818Z,6.97
2023-01-03T07:09:44.696Z,7.43
2023-01-03T07:12:30.446Z,7.13
2023-01-03T07:14:58.389Z,5.83
2023-01-03T07:17:25.937Z,6.63
2023-01-03T07:19:52.859Z,13.77
2023-01-03T07:22:19.718Z,23.83
2023-01-03T07:24:46.592Z,19.97
2023-01-03T07:27:14.438Z,19.80
2023-01-03T07:29:41.251Z,12.53
2023-01-03T07:32:08.060Z,12.60
2023-01-03T07:34:37.901Z,13.90
2023-01-03T07:37:04.715Z,12.40
2023-01-03T07:39:31.628Z,10.80
2023-01-03T07:42:17.483Z,13.50
2023-01-03T07:44:45.034Z,17.07
2023-01-03T07:47:11.831Z,14.73
2023-01-03T07:49:38.657Z,11.87
2023-01-03T07:52:06.573Z,15.23
2023-01-03T07:54:33.425Z,11.10
2023-01-03T07:57:00.290Z,11.37
2023-01-03T07:59:27.223Z,11.10
2023-01-03T08:01:55.508Z,8.77
2023-01-03T08:04:22.456Z,8.97
2023-01-03T08:06:49.387Z,8.37
2023-01-03T08:09:38.387Z,10.23
2023-01-03T08:12:23.983Z,7.57
2023-01-03T08:14:50.826Z,8.43
2023-01-03T08:17:17.670Z,7.00
2023-01-03T08:19:51.885Z,7.10
2023-01-03T08:22:19.038Z,4.97
2023-01-03T08:24:51.937Z,5.43
2023-01-03T08:27:19.256Z,6.20
2023-01-03T08:29:49.150Z,4.20
2023-01-03T08:32:17.299Z,3.57
2023-01-03T08:34:48.450Z,3.40
2023-01-03T08:37:17.208Z,2.60
2023-01-03T08:39:53.882Z,8.57
2023-01-03T08:42:23.550Z,4.50
2023-01-03T08:44:57.741Z,3.70
2023-01-03T08:47:24.681Z,2.90
2023-01-03T08:49:51.638Z,4.00
2023-01-03T08:52:18.543Z,3.87
2023-01-03T08:54:46.033Z,4.40
2023-01-03T08:57:12.879Z,4.53
2023-01-03T08:59:40.387Z,7.33
2023-01-03T09:02:09.072Z,4.80
2023-01-03T09:04:36.083Z,4.80
2023-01-03T09:07:04.080Z,5.67
2023-01-03T09:09:31.507Z,6.80
2023-01-03T09:11:58.368Z,7.13
2023-01-03T09:14:25.178Z,7.60
2023-01-03T09:16:52.204Z,9.70
2023-01-03T09:19:19.089Z,8.27
2023-01-03T09:21:46.047Z,6.70
2023-01-03T09:24:14.246Z,8.00
2023-01-03T09:26:41.283Z,9.40
2023-01-03T09:29:08.167Z,5.03
2023-01-03T09:31:35.481Z,6.17
2023-01-03T09:34:04.699Z,5.90
2023-01-03T09:36:32.637Z,7.03
2023-01-03T09:38:59.420Z,10.33
2023-01-03T09:41:27.694Z,7.07
2023-01-03T09:44:00.889Z,9.43
2023-01-03T09:46:29.431Z,10.23
2023-01-03T09:48:57.003Z,5.13
2023-01-03T09:51:44.437Z,3.83
2023-01-03T09:54:37.217Z,3.30
2023-01-03T09:57:28.744Z,3.63
2023-01-03T10:00:15.749Z,4.60
2023-01-03T10:03:05.646Z,5.55
2023-01-03T10:05:35.686Z,4.85
2023-01-03T10:08:14.812Z,4.80
2023-01-03T10:11:02.145Z,5.40
2023-01-03T10:13:47.079Z,4.97
2023-01-03T10:16:25.904Z,7.32
2023-01-03T10:19:30.106Z,5.63
2023-01-03T10:22:05.950Z,5.25
2023-01-03T10:24:58.957Z,6.30
2023-01-03T10:27:27.906Z,5.10
2023-01-03T10:30:00.378Z,5.50
2023-01-03T10:33:01.057Z,4.85
2023-01-03T10:35:30.516Z,5.22
2023-01-03T10:37:58.472Z,5.43
2023-01-03T10:40:42.871Z,5.00
2023-01-03T10:43:18.473Z,4.38
2023-01-03T10:46:18.276Z,4.35
2023-01-03T10:52:01.137Z,4.18
2023-01-03T10:54:49.502Z,5.75
2023-01-03T10:57:36.826Z,6.45
2023-01-03T11:00:29.128Z,6.40
2023-01-03T11:03:12.564Z,5.40
2023-01-03T11:05:41.474Z,5.32
2023-01-03T11:08:36.691Z,4.65
2023-01-03T11:11:03.615Z,4.72
2023-01-03T11:13:36.079Z,4.75
2023-01-03T11:16:12.688Z,3.88
2023-01-03T11:18:41.335Z,4.28
2023-01-03T11:21:23.401Z,3.63
2023-01-03T11:24:18.826Z,3.88
2023-01-03T11:27:02.789Z,4.25
2023-01-03T11:29:36.995Z,4.07
2023-01-03T11:32:34.687Z,2.60
2023-01-03T11:35:24.363Z,2.75
2023-01-03T11:38:19.858Z,3.65
2023-01-03T11:40:58.778Z,2.08
2023-01-03T11:43:44.308Z,3.45
2023-01-03T11:46:42.096Z,3.58
2023-01-03T11:49:55.814Z,1.90
2023-01-03T11:52:39.932Z,3.40
2023-01-03T11:55:43.775Z,2.22
2023-01-03T11:58:17.162Z,2.30
2023-01-03T12:01:00.587Z,2.60
2023-01-03T12:04:04.954Z,4.28
2023-01-03T12:07:14.297Z,2.20
2023-01-03T12:09:42.060Z,2.95
2023-01-03T12:12:25.295Z,2.38
2023-01-03T12:14:51.974Z,2.42
2023-01-03T12:17:25.534Z,4.00
2023-01-03T12:20:09.945Z,3.33
2023-01-03T12:23:01.166Z,4.03
2023-01-03T12:25:38.532Z,2.73
2023-01-03T12:28:11.715Z,3.67
2023-01-03T12:30:52.043Z,1.87
2023-01-03T12:33:42.727Z,2.70
2023-01-03T12:36:48.000Z,3.00
2023-01-03T12:39:36.971Z,2.83
2023-01-03T12:42:20.145Z,3.40
2023-01-03T12:44:51.264Z,4.17
2023-01-03T12:47:29.719Z,4.23
2023-01-03T12:50:03.206Z,2.90
2023-01-03T12:52:33.337Z,4.70
2023-01-03T12:55:08.314Z,3.20
2023-01-03T12:58:00.352Z,2.87
2023-01-03T13:00:42.141Z,3.57
2023-01-03T13:03:27.489Z,3.83
2023-01-03T13:06:02.999Z,15.03
2023-01-03T13:09:04.445Z,20.80
2023-01-03T13:11:36.151Z,6.50
2023-01-03T13:14:22.945Z,6.97
2023-01-03T13:16:51.070Z,7.83
2023-01-03T13:19:23.433Z,3.23
2023-01-03T13:21:50.111Z,3.60
2023-01-03T13:24:46.172Z,3.10
2023-01-03T13:27:22.811Z,3.53
2023-01-03T13:29:49.603Z,2.53
2023-01-03T13:32:22.209Z,3.00
2023-01-03T13:34:57.929Z,2.77
2023-01-03T13:37:27.585Z,3.30
2023-01-03T13:40:23.138Z,2.73
2023-01-03T13:43:01.432Z,2.20
2023-01-03T13:45:30.985Z,2.40
2023-01-03T13:47:58.985Z,2.43
2023-01-03T13:50:35.866Z,3.87
2023-01-03T13:53:10.075Z,2.90
2023-01-03T13:55:40.704Z,2.43
2023-01-03T13:58:34.453Z,2.27
2023-01-03T14:01:06.531Z,3.60
2023-01-03T14:03:33.556Z,1.60
2023-01-03T14:06:26.548Z,2.77
2023-01-03T14:09:18.065Z,1.57
2023-01-03T14:12:03.552Z,1.83
2023-01-03T14:14:33.641Z,2.20
2023-01-03T14:17:02.424Z,1.83
2023-01-03T14:19:32.402Z,5.17
2023-01-03T14:22:28.028Z,2.87
2023-01-03T14:24:57.681Z,4.63
2023-01-03T14:27:39.534Z,2.77
2023-01-03T14:30:24.325Z,1.60
2023-01-03T14:32:51.257Z,2.13
2023-01-03T14:35:35.995Z,2.93
2023-01-03T14:38:06.794Z,2.50
2023-01-03T14:40:34.309Z,2.50
2023-01-03T14:43:04.766Z,2.97
2023-01-03T14:45:31.550Z,3.03
2023-01-03T14:47:58.570Z,2.73
2023-01-03T14:50:30.497Z,2.83
2023-01-03T14:52:59.917Z,4.13
2023-01-03T14:55:30.933Z,3.83
2023-01-03T14:57:58.678Z,3.63
2023-01-03T15:00:32.883Z,3.77
2023-01-03T15:03:01.328Z,3.90
2023-01-03T15:05:39.482Z,3.47
2023-01-03T15:08:15.273Z,3.37
2023-01-03T15:10:49.402Z,4.03
2023-01-03T15:13:22.125Z,4.70
2023-01-03T15:15:57.382Z,3.00
2023-01-03T15:18:26.859Z,5.33
2023-01-03T15:20:55.211Z,4.87
2023-01-03T15:23:27.861Z,5.70
2023-01-03T15:25:54.619Z,5.10
2023-01-03T15:28:31.819Z,4.03
2023-01-03T15:31:24.994Z,4.13
2023-01-03T15:34:12.003Z,3.60
2023-01-03T15:36:39.659Z,4.27
2023-01-03T15:39:22.178Z,4.83
2023-01-03T15:44:55.213Z,5.73
2023-01-03T15:47:26.390Z,4.37
2023-01-03T15:49:57.888Z,6.63
2023-01-03T15:52:24.834Z,5.83
2023-01-03T15:54:51.537Z,5.93
2023-01-03T15:57:23.072Z,4.57
2023-01-03T15:59:55.963Z,6.03
2023-01-03T16:02:26.030Z,5.97
2023-01-03T16:04:53.976Z,5.23
2023-01-03T16:07:20.825Z,7.07
2023-01-03T16:09:47.845Z,6.30
2023-01-03T16:12:18.285Z,5.10
2023-01-03T16:14:46.830Z,5.20
2023-01-03T16:17:24.685Z,6.97
2023-01-03T16:19:52.328Z,7.73
2023-01-03T16:22:36.487Z,9.50
2023-01-03T16:25:05.471Z,8.83
2023-01-03T16:27:32.377Z,8.10
2023-01-03T16:29:59.273Z,7.53
2023-01-03T16:32:28.662Z,4.30
2023-01-03T16:35:14.381Z,6.27
2023-01-03T16:37:41.153Z,4.97
2023-01-03T16:40:16.280Z,5.63
2023-01-03T16:42:43.022Z,5.17
2023-01-03T16:45:10.271Z,6.40
2023-01-03T16:47:37.096Z,4.27
2023-01-03T16:50:14.094Z,7.20
2023-01-03T16:52:45.491Z,6.33
2023-01-03T16:55:16.182Z,8.17
2023-01-03T16:57:43.821Z,7.43
2023-01-03T17:00:21.424Z,62.10
2023-01-03T17:02:48.540Z,46.90
2023-01-03T17:05:15.634Z,48.33
2023-01-03T17:07:45.189Z,36.10
2023-01-03T17:10:33.744Z,27.13
2023-01-03T17:13:07.034Z,19.17
2023-01-03T17:15:39.183Z,14.47
2023-01-03T17:18:05.954Z,11.50
2023-01-03T17:20:32.734Z,10.33
2023-01-03T17:23:00.783Z,6.97
2023-01-03T17:25:27.554Z,7.53
2023-01-03T17:27:59.241Z,7.93
2023-01-03T17:30:28.177Z,6.30
2023-01-03T17:32:55.629Z,9.30
2023-01-03T17:35:22.745Z,11.03
2023-01-03T17:38:24.051Z,11.30
2023-01-03T17:40:36.978Z,10.93
2023-01-03T17:43:03.919Z,17.67
2023-01-03T17:45:49.764Z,14.13
2023-01-03T17:48:35.323Z,19.40
2023-01-03T17:51:03.046Z,15.73
2023-01-03T17:53:30.009Z,12.73
2023-01-03T17:55:56.806Z,13.03
2023-01-03T17:58:33.996Z,17.10
2023-01-03T18:01:00.871Z,13.77
2023-01-03T18:03:27.810Z,14.33
2023-01-03T18:05:56.074Z,14.17
2023-01-03T18:08:24.124Z,12.27
2023-01-03T18:10:54.416Z,12.97
2023-01-03T18:13:33.490Z,15.03
2023-01-03T18:16:00.555Z,9.70
2023-01-03T18:18:28.396Z,13.03
2023-01-03T18:20:55.926Z,12.80
2023-01-03T18:23:32.616Z,12.57
2023-01-03T18:26:05.311Z,16.40
2023-01-03T18:28:32.717Z,18.93
2023-01-03T18:30:59.540Z,19.07
2023-01-03T18:33:26.409Z,18.93
2023-01-03T18:35:53.797Z,16.73
2023-01-03T18:38:31.825Z,19.10
2023-01-03T18:41:04.883Z,15.53
2023-01-03T18:43:33.298Z,14.73
2023-01-03T18:46:00.145Z,12.13
2023-01-03T18:48:27.341Z,12.93
2023-01-03T18:50:59.031Z,12.77
2023-01-03T18:53:29.356Z,13.80
2023-01-03T18:55:56.450Z,13.53
2023-01-03T18:58:35.275Z,13.40
2023-01-03T19:01:02.698Z,17.20
2023-01-03T19:03:31.993Z,18.93
2023-01-03T19:06:00.471Z,19.70
2023-01-03T19:08:31.411Z,17.70
2023-01-03T19:11:20.892Z,19.47
2023-01-03T19:13:51.512Z,18.47
2023-01-03T19:16:25.230Z,19.67
2023-01-03T19:18:52.705Z,20.67
2023-01-03T19:21:21.401Z,18.03
2023-01-03T19:23:59.542Z,14.93
2023-01-03T19:26:30.693Z,17.90
2023-01-03T19:29:00.367Z,19.80
2023-01-03T19:31:48.390Z,16.97
2023-01-03T19:34:17.233Z,20.33
2023-01-03T19:36:44.177Z,19.80
2023-01-03T19:39:12.445Z,19.77
2023-01-03T19:42:13.472Z,18.77
2023-01-03T19:44:40.824Z,19.93
2023-01-03T19:47:14.127Z,19.37
2023-01-03T19:49:41.798Z,18.77
2023-01-03T19:52:08.623Z,23.17
2023-01-03T19:54:35.399Z,18.27
2023-01-03T19:57:02.102Z,23.23
2023-01-03T19:59:36.381Z,21.60
2023-01-03T20:02:28.169Z,23.07
2023-01-03T20:04:55.006Z,21.03
2023-01-03T20:07:21.941Z,23.33
2023-01-03T20:09:48.637Z,25.60
2023-01-03T20:12:21.447Z,26.27
2023-01-03T20:14:51.313Z,25.83
2023-01-03T20:17:22.947Z,20.10
2023-01-03T20:19:50.412Z,22.60
2023-01-03T20:22:44.976Z,19.57
2023-01-03T20:25:13.440Z,20.83
2023-01-03T20:27:44.819Z,22.97
2023-01-03T20:30:19.816Z,21.13
2023-01-03T20:32:46.632Z,18.70
2023-01-03T20:35:58.001Z,15.57
2023-01-03T20:38:03.220Z,13.03
2023-01-03T20:40:29.964Z,16.53
2023-01-03T20:42:58.269Z,8.93
2023-01-03T20:45:25.112Z,8.43
2023-01-03T20:47:54.264Z,17.80
2023-01-03T20:50:27.127Z,9.77
2023-01-03T20:52:55.413Z,9.77
2023-01-03T20:55:24.023Z,9.13
2023-01-03T20:57:51.679Z,8.77
2023-01-03T21:00:31.234Z,8.90
2023-01-03T21:02:58.453Z,11.33
2023-01-03T21:05:25.229Z,12.90
2023-01-03T21:08:10.667Z,10.57
2023-01-03T21:10:42.670Z,13.30
2023-01-03T21:13:10.704Z,10.77
2023-01-03T21:15:38.478Z,11.80
2023-01-03T21:18:06.289Z,15.17
2023-01-03T21:20:33.481Z,13.57
2023-01-03T21:23:00.334Z,15.47
2023-01-03T21:25:30.506Z,12.97
2023-01-03T21:27:57.301Z,14.30
2023-01-03T21:30:25.330Z,12.10
2023-01-03T21:32:52.250Z,12.40
2023-01-03T21:35:21.335Z,14.20
2023-01-03T21:37:49.315Z,12.53
2023-01-03T21:40:19.149Z,20.30
2023-01-03T21:43:05.963Z,15.33
2023-01-03T21:45:37.962Z,16.50
2023-01-03T21:48:12.880Z,17.17
2023-01-03T21:50:42.068Z,21.20
2023-01-03T21:53:17.075Z,16.17
2023-01-03T21:55:44.337Z,17.57
2023-01-03T21:58:17.569Z,20.00
2023-01-03T22:00:45.039Z,19.10
2023-01-03T22:03:31.530Z,18.40
2023-01-03T22:06:06.246Z,16.10
2023-01-03T22:08:32.983Z,19.77
2023-01-03T22:10:59.674Z,14.77
2023-01-03T22:13:26.427Z,17.87
2023-01-03T22:15:53.239Z,16.00
2023-01-03T22:18:20.119Z,15.73
2023-01-03T22:20:46.821Z,16.60
2023-01-03T22:23:14.103Z,17.23
2023-01-03T22:25:40.809Z,16.50
2023-01-03T22:28:07.474Z,13.80
2023-01-03T22:30:34.213Z,12.37
2023-01-03T22:33:00.927Z,12.33
2023-01-03T22:35:27.804Z,13.13
2023-01-03T22:37:56.470Z,11.87
2023-01-03T22:40:23.184Z,11.40
2023-01-03T22:42:49.864Z,9.93
2023-01-03T22:45:16.955Z,12.77
2023-01-03T22:47:43.753Z,11.17
2023-01-03T22:50:11.219Z,17.20
2023-01-03T22:52:39.775Z,12.70
2023-01-03T22:55:07.968Z,14.83
2023-01-03T22:57:34.779Z,13.83
2023-01-03T23:00:01.655Z,14.60
2023-01-03T23:02:29.462Z,14.10
2023-01-03T23:04:56.918Z,17.10
2023-01-03T23:07:23.688Z,18.13
2023-01-03T23:09:50.428Z,14.53
2023-01-03T23:12:35.880Z,16.73
2023-01-03T23:15:02.987Z,15.17
2023-01-03T23:17:48.464Z,18.13
2023-01-03T23:20:15.259Z,18.60
2023-01-03T23:22:43.712Z,13.53
2023-01-03T23:25:10.496Z,14.27
2023-01-03T23:27:37.215Z,13.43
2023-01-03T23:30:04.515Z,14.63
2023-01-03T23:32:32.741Z,13.97
2023-01-03T23:34:59.477Z,15.47
2023-01-03T23:37:27.472Z,16.17
2023-01-03T23:39:54.267Z,17.53
2023-01-03T23:42:21.379Z,17.67
2023-01-03T23:44:48.181Z,17.60
2023-01-03T23:47:14.977Z,16.57
2023-01-03T23:49:41.717Z,16.90
2023-01-03T23:52:08.591Z,17.47
2023-01-03T23:54:35.398Z,16.97
2023-01-03T23:57:02.142Z,18.10
2023-01-03T23:59:28.851Z,16.87
